Time;durP1;ratioP1;P1;durP2;ratioP2;P2;SDS_P1;SDS_P2;PMS_P1;PMS_P2;Temp;Humidity;BMP_temperature;BMP_pressure;BME280_temperature;BME280_humidity;BME280_pressure;Samples;Min_cycle;Max_cycle;Signal;HPM_P1;HPM_P2
2021/10/12 00:01:13;;;;;;;;;;;21.10;59.10;;;;;;5011746;28;1299;-69
2021/10/12 00:03:39;;;;;;;;;;;21.10;59.10;;;;;;5012764;28;1963;-69
2021/10/12 00:06:04;;;;;;;;;;;21.10;59.10;;;;;;5012556;28;1111;-69
2021/10/12 00:08:30;;;;;;;;;;;21.10;59.20;;;;;;5012757;28;1262;-69
2021/10/12 00:10:55;;;;;;;;;;;21.10;59.20;;;;;;5012212;28;1452;-69
2021/10/12 00:13:21;;;;;;;;;;;21.10;59.20;;;;;;5011332;28;1265;-69
2021/10/12 00:15:46;;;;;;;;;;;21.00;59.20;;;;;;5012141;28;1279;-69
2021/10/12 00:18:11;;;;;;;;;;;21.00;59.20;;;;;;5012690;28;1306;-69
2021/10/12 00:20:37;;;;;;;;;;;21.00;59.20;;;;;;5012428;28;1295;-69
2021/10/12 00:23:05;;;;;;;;;;;21.00;59.20;;;;;;5012020;28;1895;-69
2021/10/12 00:25:30;;;;;;;;;;;21.00;59.20;;;;;;5012503;28;1076;-69
2021/10/12 00:27:55;;;;;;;;;;;21.00;59.30;;;;;;5012874;28;1273;-69
2021/10/12 00:30:21;;;;;;;;;;;21.00;59.30;;;;;;5012400;28;1282;-69
2021/10/12 00:32:46;;;;;;;;;;;21.00;59.30;;;;;;5011768;28;1348;-69
2021/10/12 00:35:12;;;;;;;;;;;21.00;59.30;;;;;;5011258;28;1252;-69
2021/10/12 00:37:37;;;;;;;;;;;21.00;59.30;;;;;;5011235;28;1403;-69
2021/10/12 00:40:03;;;;;;;;;;;21.00;59.40;;;;;;5011138;28;1263;-69
2021/10/12 00:42:28;;;;;;;;;;;21.00;59.40;;;;;;5011393;28;1289;-69
2021/10/12 00:44:54;;;;;;;;;;;21.00;59.40;;;;;;5011817;28;1902;-69
2021/10/12 00:47:19;;;;;;;;;;;21.00;59.40;;;;;;5010273;28;1290;-69
2021/10/12 00:49:44;;;;;;;;;;;21.00;59.40;;;;;;5010096;28;1369;-69
2021/10/12 00:52:10;;;;;;;;;;;21.00;59.40;;;;;;5014392;28;1343;-69
2021/10/12 00:54:35;;;;;;;;;;;20.90;59.40;;;;;;5015285;28;1244;-69
2021/10/12 00:57:01;;;;;;;;;;;20.90;59.40;;;;;;5013366;28;1412;-69
2021/10/12 00:59:26;;;;;;;;;;;21.00;59.50;;;;;;5014580;28;1135;-69
2021/10/12 01:01:52;;;;;;;;;;;21.00;59.50;;;;;;5014156;28;1379;-69
2021/10/12 01:04:17;;;;;;;;;;;20.90;59.50;;;;;;5013223;28;1910;-69
2021/10/12 01:06:43;;;;;;;;;;;20.90;59.50;;;;;;5012974;28;1303;-69
2021/10/12 01:09:08;;;;;;;;;;;20.90;59.50;;;;;;5014620;28;1356;-69
2021/10/12 01:11:34;;;;;;;;;;;20.90;59.50;;;;;;5013931;28;1333;-69
2021/10/12 01:14:00;;;;;;;;;;;20.90;59.50;;;;;;5014457;28;1060;-69
2021/10/12 01:16:25;;;;;;;;;;;20.90;59.50;;;;;;5012666;28;1330;-69
2021/10/12 01:18:57;;;;;;;;;;;20.90;59.50;;;;;;5014592;28;1305;-69
2021/10/12 01:21:23;;;;;;;;;;;20.90;59.60;;;;;;5013890;28;1208;-69
2021/10/12 01:23:49;;;;;;;;;;;20.90;59.60;;;;;;5014441;28;1907;-69
2021/10/12 01:26:14;;;;;;;;;;;20.90;59.60;;;;;;5013956;28;1306;-69
2021/10/12 01:28:40;;;;;;;;;;;20.90;59.60;;;;;;5014173;28;1308;-69
2021/10/12 01:31:05;;;;;;;;;;;20.90;59.60;;;;;;4979367;28;995706;-69
2021/10/12 01:33:31;;;;;;;;;;;20.90;59.70;;;;;;5015293;28;1408;-69
2021/10/12 01:35:56;;;;;;;;;;;20.90;59.70;;;;;;5015520;28;1293;-69
2021/10/12 01:38:22;;;;;;;;;;;20.90;59.60;;;;;;5015449;28;1377;-69
2021/10/12 01:40:47;;;;;;;;;;;20.90;59.70;;;;;;5015055;28;1362;-69
2021/10/12 01:43:13;;;;;;;;;;;20.90;59.70;;;;;;5015120;28;1914;-69
2021/10/12 01:45:38;;;;;;;;;;;20.90;59.70;;;;;;5014903;28;1312;-69
2021/10/12 01:48:04;;;;;;;;;;;20.90;59.70;;;;;;5015536;28;1218;-69
2021/10/12 01:50:29;;;;;;;;;;;20.90;59.70;;;;;;5013293;28;1240;-69
2021/10/12 01:52:55;;;;;;;;;;;20.90;59.80;;;;;;5015035;28;1212;-69
2021/10/12 01:55:22;;;;;;;;;;;20.90;59.80;;;;;;5014734;28;1251;-69
2021/10/12 01:57:47;;;;;;;;;;;20.90;59.80;;;;;;5013451;28;1018;-69
2021/10/12 02:00:13;;;;;;;;;;;20.80;59.70;;;;;;5014680;28;1368;-69
2021/10/12 02:02:38;;;;;;;;;;;20.80;59.80;;;;;;5013613;28;1209;-69
2021/10/12 02:05:04;;;;;;;;;;;20.80;59.80;;;;;;5014530;28;1971;-69
2021/10/12 02:07:29;;;;;;;;;;;20.80;60.40;;;;;;5014884;28;1266;-69
2021/10/12 02:09:55;;;;;;;;;;;20.80;59.80;;;;;;5014376;28;1281;-69
2021/10/12 02:12:20;;;;;;;;;;;20.80;59.80;;;;;;5013990;28;1235;-69
2021/10/12 02:14:45;;;;;;;;;;;20.80;59.80;;;;;;5014587;28;1273;-69
2021/10/12 02:17:11;;;;;;;;;;;20.80;59.80;;;;;;5014710;28;1332;-69
2021/10/12 02:19:36;;;;;;;;;;;20.80;59.80;;;;;;5014546;28;1268;-69
2021/10/12 02:22:02;;;;;;;;;;;20.80;59.80;;;;;;5014055;28;1304;-69
2021/10/12 02:24:27;;;;;;;;;;;20.80;59.80;;;;;;5012642;28;1973;-69
2021/10/12 02:26:53;;;;;;;;;;;20.80;59.90;;;;;;5014193;28;1045;-69
2021/10/12 02:29:18;;;;;;;;;;;20.80;59.90;;;;;;5014328;28;1291;-69
2021/10/12 02:31:44;;;;;;;;;;;20.80;59.90;;;;;;5013732;28;1377;-69
2021/10/12 02:34:09;;;;;;;;;;;20.80;59.90;;;;;;5014023;28;1325;-69
2021/10/12 02:36:34;;;;;;;;;;;20.80;59.90;;;;;;5013891;28;1310;-69
2021/10/12 02:39:00;;;;;;;;;;;20.80;59.90;;;;;;5014244;28;1272;-68
2021/10/12 02:41:25;;;;;;;;;;;20.80;59.90;;;;;;5012068;28;1291;-69
2021/10/12 02:43:51;;;;;;;;;;;20.80;59.90;;;;;;5012566;28;1960;-69
2021/10/12 02:46:16;;;;;;;;;;;20.80;59.90;;;;;;5013977;28;1263;-69
2021/10/12 02:48:42;;;;;;;;;;;20.80;60.00;;;;;;5014318;28;1257;-69
2021/10/12 02:51:07;;;;;;;;;;;20.80;60.00;;;;;;5012916;28;1334;-69
2021/10/12 02:53:32;;;;;;;;;;;20.80;60.00;;;;;;5014038;28;1425;-69
2021/10/12 02:55:58;;;;;;;;;;;20.80;60.00;;;;;;5013705;28;1154;-69
2021/10/12 02:58:23;;;;;;;;;;;20.80;60.00;;;;;;5013057;28;1236;-69
2021/10/12 03:00:49;;;;;;;;;;;20.80;60.00;;;;;;5013298;28;1325;-69
2021/10/12 03:03:14;;;;;;;;;;;20.80;60.00;;;;;;5013753;28;1955;-69
2021/10/12 03:05:43;;;;;;;;;;;20.80;60.10;;;;;;5013885;28;1369;-69
2021/10/12 03:08:08;;;;;;;;;;;20.80;60.10;;;;;;5013857;28;1303;-69
2021/10/12 03:10:34;;;;;;;;;;;20.80;60.10;;;;;;5013588;28;1281;-69
2021/10/12 03:12:59;;;;;;;;;;;20.70;60.00;;;;;;5013203;28;1115;-69
2021/10/12 03:15:24;;;;;;;;;;;20.80;60.10;;;;;;5013640;28;1284;-69
2021/10/12 03:17:50;;;;;;;;;;;20.80;60.10;;;;;;5013262;28;1340;-69
2021/10/12 03:20:18;;;;;;;;;;;20.70;60.10;;;;;;5011677;28;1293;-69
2021/10/12 03:22:44;;;;;;;;;;;20.80;60.10;;;;;;5013473;28;1329;-69
2021/10/12 03:25:09;;;;;;;;;;;20.70;60.10;;;;;;5011974;28;1894;-69
2021/10/12 03:27:35;;;;;;;;;;;20.70;60.20;;;;;;5012160;28;1377;-69
2021/10/12 03:30:00;;;;;;;;;;;20.70;60.10;;;;;;5012947;28;1297;-69
2021/10/12 03:32:26;;;;;;;;;;;20.70;60.10;;;;;;5013099;28;1358;-69
2021/10/12 03:34:51;;;;;;;;;;;20.70;60.20;;;;;;5013339;28;1325;-69
2021/10/12 03:37:17;;;;;;;;;;;20.70;60.20;;;;;;5012673;28;1698;-69
2021/10/12 03:39:42;;;;;;;;;;;20.70;60.10;;;;;;5013044;28;1266;-69
2021/10/12 03:42:08;;;;;;;;;;;20.70;60.10;;;;;;5012502;28;1301;-69
2021/10/12 03:44:33;;;;;;;;;;;20.80;60.10;;;;;;5013090;28;1960;-69
2021/10/12 03:46:59;;;;;;;;;;;20.80;60.10;;;;;;5011462;28;1279;-69
2021/10/12 03:49:24;;;;;;;;;;;20.80;60.00;;;;;;5013509;28;1257;-69
2021/10/12 03:51:49;;;;;;;;;;;20.80;59.90;;;;;;5010950;28;1295;-69
2021/10/12 03:54:15;;;;;;;;;;;20.90;59.90;;;;;;5012763;28;1323;-69
2021/10/12 03:56:40;;;;;;;;;;;20.90;59.80;;;;;;5012161;28;1244;-69
2021/10/12 03:59:06;;;;;;;;;;;20.90;59.80;;;;;;5012873;28;1119;-69
2021/10/12 04:01:31;;;;;;;;;;;21.00;59.70;;;;;;5011033;28;1370;-69
2021/10/12 04:03:57;;;;;;;;;;;21.00;59.60;;;;;;5011407;28;1902;-69
2021/10/12 04:06:22;;;;;;;;;;;21.00;59.60;;;;;;5012437;28;1238;-69
2021/10/12 04:08:48;;;;;;;;;;;21.00;59.50;;;;;;5012774;28;1283;-69
2021/10/12 04:11:13;;;;;;;;;;;21.10;59.50;;;;;;5011946;28;1335;-69
2021/10/12 04:13:39;;;;;;;;;;;21.10;59.40;;;;;;5012176;28;1358;-69
2021/10/12 04:16:04;;;;;;;;;;;21.10;59.40;;;;;;5011272;28;1300;-69
2021/10/12 04:18:30;;;;;;;;;;;21.10;59.90;;;;;;5011321;28;1335;-69
2021/10/12 04:20:55;;;;;;;;;;;21.10;59.20;;;;;;5011929;28;1355;-69
2021/10/12 04:23:20;;;;;;;;;;;21.10;59.20;;;;;;5011267;28;1879;-69
2021/10/12 04:25:47;;;;;;;;;;;21.10;59.20;;;;;;5014965;28;1279;-69
2021/10/12 04:28:13;;;;;;;;;;;21.10;59.20;;;;;;5016555;28;1303;-69
2021/10/12 04:30:42;;;;;;;;;;;21.20;59.20;;;;;;5016115;28;1356;-69
2021/10/12 04:33:07;;;;;;;;;;;21.10;59.10;;;;;;5016279;28;1224;-69
2021/10/12 04:35:33;;;;;;;;;;;21.20;59.10;;;;;;5016496;28;1262;-69
2021/10/12 04:37:58;;;;;;;;;;;21.20;59.10;;;;;;5016735;28;1354;-69
2021/10/12 04:40:25;;;;;;;;;;;21.20;59.10;;;;;;5015409;28;1197;-69
2021/10/12 04:42:51;;;;;;;;;;;21.20;59.00;;;;;;5014860;28;1347;-69
2021/10/12 04:45:16;;;;;;;;;;;21.20;59.00;;;;;;5016139;28;1902;-69
2021/10/12 04:47:41;;;;;;;;;;;21.20;59.00;;;;;;5016627;28;1119;-69
2021/10/12 04:50:07;;;;;;;;;;;21.20;59.00;;;;;;5015694;28;1318;-69
2021/10/12 04:52:33;;;;;;;;;;;21.20;58.90;;;;;;5015940;28;1291;-69
2021/10/12 04:54:58;;;;;;;;;;;21.20;58.90;;;;;;5015634;28;1172;-69
2021/10/12 04:57:23;;;;;;;;;;;21.20;58.90;;;;;;5016089;28;1052;-69
2021/10/12 04:59:49;;;;;;;;;;;21.20;58.90;;;;;;5016301;28;1296;-69
2021/10/12 05:02:14;;;;;;;;;;;21.30;58.90;;;;;;5015356;28;1428;-69
2021/10/12 05:04:40;;;;;;;;;;;21.20;58.90;;;;;;5015986;28;1906;-69
2021/10/12 05:07:05;;;;;;;;;;;21.20;58.90;;;;;;5014195;28;1983;-69
2021/10/12 05:09:30;;;;;;;;;;;21.20;58.90;;;;;;5019818;28;2179;-69
2021/10/12 05:11:56;;;;;;;;;;;21.30;58.90;;;;;;5014796;28;1274;-69
2021/10/12 05:14:21;;;;;;;;;;;21.20;58.90;;;;;;5015710;28;1274;-69
2021/10/12 05:16:49;;;;;;;;;;;21.30;58.90;;;;;;5007102;28;1495;-70
2021/10/12 05:19:15;;;;;;;;;;;21.20;59.40;;;;;;5010890;28;1398;-70
2021/10/12 05:21:40;;;;;;;;;;;21.30;58.90;;;;;;5014103;28;1334;-70
2021/10/12 05:24:06;;;;;;;;;;;21.20;58.90;;;;;;5014497;28;1903;-70
2021/10/12 05:26:31;;;;;;;;;;;21.30;58.90;;;;;;5014374;28;1243;-70
2021/10/12 05:28:57;;;;;;;;;;;21.30;58.90;;;;;;5014565;28;1358;-70
2021/10/12 05:31:22;;;;;;;;;;;21.30;58.90;;;;;;5013614;28;1407;-71
2021/10/12 05:33:48;;;;;;;;;;;21.30;58.90;;;;;;5012989;28;1386;-70
2021/10/12 05:36:13;;;;;;;;;;;21.30;58.90;;;;;;5012899;28;1306;-70
2021/10/12 05:38:39;;;;;;;;;;;21.30;58.90;;;;;;5013149;28;1325;-70
2021/10/12 05:41:04;;;;;;;;;;;21.30;58.90;;;;;;4999335;28;1363;-69
2021/10/12 05:43:30;;;;;;;;;;;21.30;58.90;;;;;;5014638;28;1977;-69
2021/10/12 05:45:55;;;;;;;;;;;21.30;58.90;;;;;;5015495;28;1414;-69
2021/10/12 05:48:21;;;;;;;;;;;21.30;58.90;;;;;;5014189;28;1198;-71
2021/10/12 05:50:47;;;;;;;;;;;21.30;58.90;;;;;;5013168;28;1375;-71
2021/10/12 05:53:28;;;;;;;;;;;21.30;58.90;;;;;;5012927;28;1306;-71
2021/10/12 05:56:05;;;;;;;;;;;21.30;58.90;;;;;;5013408;28;1084;-72
2021/10/12 05:58:44;;;;;;;;;;;21.30;58.90;;;;;;5013837;28;1259;-70
2021/10/12 06:01:10;;;;;;;;;;;21.30;58.90;;;;;;5014041;28;1456;-70
2021/10/12 06:03:35;;;;;;;;;;;21.30;58.80;;;;;;5014593;28;1949;-70
2021/10/12 06:06:01;;;;;;;;;;;21.30;57.40;;;;;;5014712;28;1335;-70
2021/10/12 06:08:30;;;;;;;;;;;21.30;57.30;;;;;;5014622;28;1401;-71
2021/10/12 06:10:55;;;;;;;;;;;21.30;56.80;;;;;;5012898;28;1284;-70
2021/10/12 06:13:22;;;;;;;;;;;21.30;56.70;;;;;;5014882;28;1370;-70
2021/10/12 06:15:48;;;;;;;;;;;21.30;56.50;;;;;;5014417;28;1139;-69
2021/10/12 06:18:13;;;;;;;;;;;21.30;56.60;;;;;;5014445;28;1278;-71
2021/10/12 06:20:39;;;;;;;;;;;21.30;56.70;;;;;;5014261;28;1314;-70
2021/10/12 06:23:04;;;;;;;;;;;21.30;56.80;;;;;;5014188;28;1957;-70
2021/10/12 06:25:30;;;;;;;;;;;21.30;57.10;;;;;;5013071;28;1290;-70
2021/10/12 06:27:55;;;;;;;;;;;21.30;57.40;;;;;;5014452;28;1309;-70
2021/10/12 06:30:21;;;;;;;;;;;21.30;57.40;;;;;;5013395;28;1272;-69
2021/10/12 06:32:46;;;;;;;;;;;21.40;57.50;;;;;;5012929;28;1318;-70
2021/10/12 06:35:11;;;;;;;;;;;21.50;57.40;;;;;;5014371;28;1323;-70
2021/10/12 06:37:37;;;;;;;;;;;21.50;57.30;;;;;;5013800;28;1116;-70
2021/10/12 06:40:02;;;;;;;;;;;21.60;57.30;;;;;;5002199;28;1304;-70
2021/10/12 06:42:28;;;;;;;;;;;21.70;57.30;;;;;;5011105;28;1344;-70
2021/10/12 06:44:53;;;;;;;;;;;21.80;57.20;;;;;;5013935;28;1914;-70
2021/10/12 06:47:19;;;;;;;;;;;21.90;57.00;;;;;;5013318;28;1307;-70
2021/10/12 06:49:44;;;;;;;;;;;22.00;56.90;;;;;;5013873;28;1087;-70
2021/10/12 06:52:09;;;;;;;;;;;22.10;56.70;;;;;;5011263;28;2067;-71
2021/10/12 06:54:35;;;;;;;;;;;22.10;56.50;;;;;;5013114;28;1244;-71
2021/10/12 06:57:01;;;;;;;;;;;22.20;56.40;;;;;;5011210;28;1388;-72
2021/10/12 06:59:27;;;;;;;;;;;22.30;56.30;;;;;;5006711;28;1425;-71
2021/10/12 07:01:52;;;;;;;;;;;22.30;56.10;;;;;;5013055;28;1380;-70
2021/10/12 07:04:18;;;;;;;;;;;22.40;56.10;;;;;;5011933;28;1907;-71
2021/10/12 07:06:44;;;;;;;;;;;22.40;56.00;;;;;;5013749;28;1350;-71
2021/10/12 07:09:10;;;;;;;;;;;22.40;56.00;;;;;;5013806;28;1263;-71
2021/10/12 07:11:36;;;;;;;;;;;22.50;55.90;;;;;;5012777;28;1351;-71
2021/10/12 07:14:02;;;;;;;;;;;22.50;55.90;;;;;;5012247;28;1372;-71
2021/10/12 07:16:27;;;;;;;;;;;22.50;55.90;;;;;;5012479;28;1294;-71
2021/10/12 07:18:53;;;;;;;;;;;22.50;55.90;;;;;;5013397;28;1318;-71
2021/10/12 07:21:18;;;;;;;;;;;22.50;55.90;;;;;;5012663;28;1367;-71
2021/10/12 07:23:43;;;;;;;;;;;22.50;55.90;;;;;;5012812;28;1894;-71
2021/10/12 07:26:09;;;;;;;;;;;22.50;56.20;;;;;;5011228;28;1297;-71
2021/10/12 07:28:34;;;;;;;;;;;22.50;56.60;;;;;;5011371;28;1389;-71
2021/10/12 07:31:03;;;;;;;;;;;22.50;56.70;;;;;;5008982;28;1329;-71
2021/10/12 07:33:29;;;;;;;;;;;22.50;56.90;;;;;;5013337;28;1507;-71
2021/10/12 07:35:54;;;;;;;;;;;22.50;57.10;;;;;;5010840;28;1496;-71
2021/10/12 07:38:20;;;;;;;;;;;22.50;57.10;;;;;;5010506;28;1497;-71
2021/10/12 07:40:45;;;;;;;;;;;22.50;57.40;;;;;;5009490;28;1519;-71
2021/10/12 07:43:11;;;;;;;;;;;22.50;57.50;;;;;;5011186;28;1902;-71
2021/10/12 07:45:36;;;;;;;;;;;22.50;57.60;;;;;;5012353;28;1272;-70
2021/10/12 07:48:02;;;;;;;;;;;22.50;57.60;;;;;;5005276;28;1147;-71
2021/10/12 07:50:27;;;;;;;;;;;22.60;57.70;;;;;;5011703;28;1329;-71
2021/10/12 07:52:53;;;;;;;;;;;22.50;57.70;;;;;;5012820;28;1283;-71
2021/10/12 07:55:31;;;;;;;;;;;22.50;57.80;;;;;;5012851;28;1293;-70
2021/10/12 07:57:57;;;;;;;;;;;22.50;57.70;;;;;;5012162;28;1255;-71
2021/10/12 08:00:27;;;;;;;;;;;22.50;58.00;;;;;;5010999;28;1288;-70
2021/10/12 08:02:53;;;;;;;;;;;22.50;58.00;;;;;;5012272;28;1299;-70
2021/10/12 08:05:19;;;;;;;;;;;22.50;58.10;;;;;;5011831;28;1899;-70
2021/10/12 08:07:45;;;;;;;;;;;22.50;58.10;;;;;;5012283;28;1063;-70
2021/10/12 08:10:10;;;;;;;;;;;22.50;58.20;;;;;;5012062;28;1306;-70
2021/10/12 08:12:35;;;;;;;;;;;22.50;58.30;;;;;;5012636;28;1284;-71
2021/10/12 08:15:01;;;;;;;;;;;22.50;58.30;;;;;;5011048;28;1269;-70
2021/10/12 08:17:26;;;;;;;;;;;22.50;58.30;;;;;;5012710;28;1260;-71
2021/10/12 08:19:52;;;;;;;;;;;22.50;58.50;;;;;;5010877;28;1257;-71
2021/10/12 08:22:17;;;;;;;;;;;22.50;58.50;;;;;;5011196;28;1309;-70
2021/10/12 08:24:43;;;;;;;;;;;22.50;58.60;;;;;;5012249;28;1966;-70
2021/10/12 08:27:08;;;;;;;;;;;22.50;58.60;;;;;;5012544;28;1318;-70
2021/10/12 08:29:34;;;;;;;;;;;22.50;58.60;;;;;;5012003;28;1119;-70
2021/10/12 08:31:59;;;;;;;;;;;22.50;58.60;;;;;;5011580;28;1609;-70
2021/10/12 08:34:25;;;;;;;;;;;22.50;58.70;;;;;;5012270;28;1406;-70
2021/10/12 08:36:50;;;;;;;;;;;22.50;58.70;;;;;;5011921;28;1271;-70
2021/10/12 08:39:16;;;;;;;;;;;22.50;58.70;;;;;;5012469;28;1394;-70
2021/10/12 08:41:43;;;;;;;;;;;22.50;58.80;;;;;;5011825;28;1370;-71
2021/10/12 08:44:09;;;;;;;;;;;22.50;58.80;;;;;;5011688;28;1914;-71
2021/10/12 08:46:34;;;;;;;;;;;22.50;58.80;;;;;;5011853;28;1327;-70
2021/10/12 08:49:00;;;;;;;;;;;22.50;58.90;;;;;;5011898;28;1285;-70
2021/10/12 08:51:26;;;;;;;;;;;22.50;58.90;;;;;;5011701;28;1240;-71
2021/10/12 08:53:51;;;;;;;;;;;22.50;59.00;;;;;;5010517;28;1136;-71
2021/10/12 08:56:16;;;;;;;;;;;22.50;59.10;;;;;;5011776;28;1335;-70
2021/10/12 08:58:42;;;;;;;;;;;22.50;59.10;;;;;;5012232;28;1282;-70
2021/10/12 09:01:11;;;;;;;;;;;22.50;59.10;;;;;;5011445;28;1312;-70
2021/10/12 09:03:44;;;;;;;;;;;22.50;59.20;;;;;;5011693;28;1902;-71
2021/10/12 09:06:10;;;;;;;;;;;22.50;59.00;;;;;;5012650;28;1390;-71
2021/10/12 09:08:38;;;;;;;;;;;22.50;59.10;;;;;;5012733;28;1345;-70
2021/10/12 09:11:04;;;;;;;;;;;22.50;59.20;;;;;;5011943;28;1379;-71
2021/10/12 09:13:41;;;;;;;;;;;22.50;59.20;;;;;;5015595;28;1336;-70
2021/10/12 09:16:08;;;;;;;;;;;22.50;59.20;;;;;;5015445;28;1150;-70
2021/10/12 09:18:52;;;;;;;;;;;22.50;59.20;;;;;;5015642;28;1353;-70
2021/10/12 09:21:25;;;;;;;;;;;22.50;59.20;;;;;;5014457;28;1365;-71
2021/10/12 09:23:50;;;;;;;;;;;22.50;59.20;;;;;;5014259;28;1985;-71
2021/10/12 09:26:19;;;;;;;;;;;22.50;59.30;;;;;;5015577;28;1398;-71
2021/10/12 09:28:44;;;;;;;;;;;22.50;59.30;;;;;;5015244;28;1068;-72
2021/10/12 09:31:10;;;;;;;;;;;22.50;59.40;;;;;;5014526;28;1351;-71
2021/10/12 09:33:45;;;;;;;;;;;22.50;59.40;;;;;;5015598;28;1579;-71
2021/10/12 09:36:25;;;;;;;;;;;22.50;59.50;;;;;;5013743;28;1293;-72
2021/10/12 09:38:50;;;;;;;;;;;22.40;59.40;;;;;;5013634;28;1319;-71
2021/10/12 09:41:16;;;;;;;;;;;22.40;59.50;;;;;;5003960;28;1294;-72
2021/10/12 09:43:41;;;;;;;;;;;22.40;59.50;;;;;;5015808;28;1910;-72
2021/10/12 09:46:20;;;;;;;;;;;22.40;59.60;;;;;;5014176;28;2381;-72
2021/10/12 09:48:45;;;;;;;;;;;22.40;59.60;;;;;;5014010;28;2043;-71
2021/10/12 09:51:11;;;;;;;;;;;22.40;59.60;;;;;;5013719;28;1315;-72
2021/10/12 09:53:37;;;;;;;;;;;22.40;59.60;;;;;;5014624;28;1170;-71
2021/10/12 09:56:03;;;;;;;;;;;22.40;59.70;;;;;;5015646;28;973;-72
2021/10/12 09:58:29;;;;;;;;;;;22.40;59.70;;;;;;5010442;28;1922;-72
2021/10/12 10:00:55;;;;;;;;;;;22.40;59.80;;;;;;5006674;28;1793;-71
2021/10/12 10:03:20;;;;;;;;;;;22.50;59.80;;;;;;5005956;28;2083;-72
2021/10/12 10:05:46;;;;;;;;;;;22.50;59.80;;;;;;5012875;28;1594;-72
2021/10/12 10:08:11;;;;;;;;;;;22.50;59.80;;;;;;5014092;28;1339;-71
2021/10/12 10:10:36;;;;;;;;;;;22.50;59.80;;;;;;5012921;28;1306;-71
2021/10/12 10:13:02;;;;;;;;;;;22.40;59.80;;;;;;5014554;28;1573;-72
2021/10/12 10:15:27;;;;;;;;;;;22.40;59.90;;;;;;5006067;28;2232;-70
2021/10/12 10:17:53;;;;;;;;;;;22.40;59.90;;;;;;5005985;28;1950;-71
2021/10/12 10:20:18;;;;;;;;;;;22.40;59.90;;;;;;5011613;28;2141;-70
2021/10/12 10:25:21;;;;;;;;;;;22.40;59.90;;;;;;5006748;28;1961;-70
2021/10/12 10:27:47;;;;;;;;;;;22.50;60.00;;;;;;5004791;28;1976;-71
2021/10/12 10:30:19;;;;;;;;;;;22.50;60.10;;;;;;5013269;28;1155;-70
2021/10/12 10:32:48;;;;;;;;;;;22.50;60.10;;;;;;5007005;28;1371;-70
2021/10/12 10:35:14;;;;;;;;;;;22.50;60.20;;;;;;5003814;28;2170;-71
2021/10/12 10:37:40;;;;;;;;;;;22.50;60.20;;;;;;5011827;28;1315;-71
2021/10/12 10:40:07;;;;;;;;;;;22.50;61.20;;;;;;5000205;28;1619;-70
2021/10/12 10:42:41;;;;;;;;;;;22.50;60.30;;;;;;5011825;28;1690;-70
2021/10/12 10:45:07;;;;;;;;;;;22.60;61.20;;;;;;5007725;28;1947;-70
2021/10/12 10:47:46;;;;;;;;;;;22.60;60.10;;;;;;5021927;28;1442;-70
2021/10/12 10:50:27;;;;;;;;;;;22.70;60.10;;;;;;5003712;28;2117;-70
2021/10/12 10:52:54;;;;;;;;;;;22.70;60.00;;;;;;5010284;28;1902;-70
2021/10/12 10:55:23;;;;;;;;;;;22.70;59.90;;;;;;4994210;28;1949;-70
2021/10/12 10:58:07;;;;;;;;;;;22.70;59.80;;;;;;5012191;28;1264;-70
2021/10/12 11:00:36;;;;;;;;;;;22.70;59.70;;;;;;5006671;28;1971;-70
2021/10/12 11:03:01;;;;;;;;;;;22.70;59.80;;;;;;5007083;28;1122;-70
2021/10/12 11:05:34;;;;;;;;;;;22.70;59.90;;;;;;5004033;28;1898;-70
2021/10/12 11:08:16;;;;;;;;;;;22.70;59.90;;;;;;5004047;28;1324;-70
2021/10/12 11:10:41;;;;;;;;;;;22.70;59.90;;;;;;5003285;28;2003;-70
2021/10/12 11:13:07;;;;;;;;;;;22.70;59.90;;;;;;5023002;28;2049;-70
2021/10/12 11:15:32;;;;;;;;;;;22.70;60.00;;;;;;5011716;28;1299;-70
2021/10/12 11:18:04;;;;;;;;;;;22.70;60.80;;;;;;5007950;28;1249;-70
2021/10/12 11:20:40;;;;;;;;;;;22.70;60.10;;;;;;5009975;28;1418;-71
2021/10/12 11:23:05;;;;;;;;;;;22.60;60.00;;;;;;5011603;28;1355;-71
2021/10/12 11:25:31;;;;;;;;;;;22.60;60.20;;;;;;5012534;28;1907;-72
2021/10/12 11:28:04;;;;;;;;;;;22.60;60.20;;;;;;5013312;28;1381;-71
2021/10/12 11:30:31;;;;;;;;;;;22.60;60.30;;;;;;5011519;28;1257;-71
2021/10/12 11:32:57;;;;;;;;;;;22.60;60.20;;;;;;5011684;28;1494;-71
2021/10/12 11:35:30;;;;;;;;;;;22.60;60.20;;;;;;5011555;28;1331;-71
2021/10/12 11:37:56;;;;;;;;;;;22.60;60.30;;;;;;5013435;28;1235;-71
2021/10/12 11:40:24;;;;;;;;;;;22.60;60.50;;;;;;4998921;28;1267;-71
2021/10/12 11:42:52;;;;;;;;;;;22.60;60.50;;;;;;5011706;28;1360;-71
2021/10/12 11:45:17;;;;;;;;;;;22.60;60.60;;;;;;5012144;28;1968;-71
2021/10/12 11:47:43;;;;;;;;;;;22.50;60.70;;;;;;5013458;28;1175;-71
2021/10/12 11:50:08;;;;;;;;;;;22.50;60.70;;;;;;5011007;28;1422;-71
2021/10/12 11:52:34;;;;;;;;;;;22.50;60.90;;;;;;5013261;28;1350;-71
2021/10/12 11:55:06;;;;;;;;;;;22.50;61.00;;;;;;5012907;28;1297;-71
2021/10/12 11:57:32;;;;;;;;;;;22.50;61.10;;;;;;5011512;28;1272;-70
2021/10/12 11:59:57;;;;;;;;;;;22.50;61.30;;;;;;4994660;28;1334;-70
2021/10/12 12:02:23;;;;;;;;;;;22.50;61.50;;;;;;5011554;28;1337;-70
2021/10/12 12:04:50;;;;;;;;;;;22.40;61.50;;;;;;4995426;28;1898;-71
2021/10/12 12:07:16;;;;;;;;;;;22.40;61.60;;;;;;5011090;28;1276;-72
2021/10/12 12:09:42;;;;;;;;;;;22.40;61.60;;;;;;5011109;28;1229;-71
2021/10/12 12:12:07;;;;;;;;;;;22.40;61.60;;;;;;5010821;28;1479;-71
2021/10/12 12:14:33;;;;;;;;;;;22.40;61.80;;;;;;5011176;28;1322;-71
2021/10/12 12:17:14;;;;;;;;;;;22.40;61.70;;;;;;5013098;28;1306;-71
2021/10/12 12:19:43;;;;;;;;;;;22.40;61.60;;;;;;5012971;28;1315;-71
2021/10/12 12:22:22;;;;;;;;;;;22.40;61.60;;;;;;5011037;28;1328;-71
2021/10/12 12:24:57;;;;;;;;;;;22.40;61.40;;;;;;5012280;28;1890;-71
2021/10/12 12:27:23;;;;;;;;;;;22.40;61.40;;;;;;5012625;28;1337;-71
2021/10/12 12:30:01;;;;;;;;;;;22.40;61.40;;;;;;5007396;28;1101;-70
2021/10/12 12:32:26;;;;;;;;;;;22.40;61.50;;;;;;5010265;28;1311;-71
2021/10/12 12:34:59;;;;;;;;;;;22.40;61.60;;;;;;5011372;28;1302;-71
2021/10/12 12:37:26;;;;;;;;;;;22.40;61.60;;;;;;5010166;28;1005;-71
2021/10/12 12:39:51;;;;;;;;;;;22.40;61.60;;;;;;5010639;28;1059;-71
2021/10/12 12:42:29;;;;;;;;;;;22.30;61.70;;;;;;5010506;28;1316;-71
2021/10/12 12:45:05;;;;;;;;;;;22.30;61.80;;;;;;5009923;28;1980;-71
2021/10/12 12:47:30;;;;;;;;;;;22.30;62.60;;;;;;5015239;28;1266;-71
2021/10/12 12:50:06;;;;;;;;;;;22.30;62.00;;;;;;5016026;28;1246;-71
2021/10/12 12:52:32;;;;;;;;;;;22.30;62.10;;;;;;5016210;28;1727;-71
2021/10/12 12:54:57;;;;;;;;;;;22.30;62.30;;;;;;5014968;28;1099;-71
2021/10/12 12:57:23;;;;;;;;;;;22.30;62.40;;;;;;5014332;28;1279;-71
2021/10/12 13:00:00;;;;;;;;;;;22.30;62.40;;;;;;5009340;28;1306;-71
2021/10/12 13:02:26;;;;;;;;;;;22.20;62.40;;;;;;5014696;28;1301;-72
2021/10/12 13:04:51;;;;;;;;;;;22.30;62.60;;;;;;5013595;28;1899;-72
2021/10/12 13:07:17;;;;;;;;;;;22.20;62.60;;;;;;5015345;28;1255;-71
2021/10/12 13:09:42;;;;;;;;;;;22.20;62.70;;;;;;5014560;28;1251;-70
2021/10/12 13:12:08;;;;;;;;;;;22.20;62.70;;;;;;5007764;28;2227;-70
2021/10/12 13:14:34;;;;;;;;;;;22.20;62.70;;;;;;5011745;28;1156;-70
2021/10/12 13:17:01;;;;;;;;;;;22.20;62.80;;;;;;5014118;28;1084;-70
2021/10/12 13:19:26;;;;;;;;;;;22.20;62.90;;;;;;5012691;28;1132;-70
2021/10/12 13:21:52;;;;;;;;;;;22.20;62.80;;;;;;5013943;28;1295;-70
2021/10/12 13:24:17;;;;;;;;;;;22.20;62.90;;;;;;5014623;28;1965;-71
2021/10/12 13:26:43;;;;;;;;;;;22.20;62.90;;;;;;5015252;28;1307;-71
2021/10/12 13:29:09;;;;;;;;;;;22.20;62.90;;;;;;5015666;28;1394;-70
2021/10/12 13:31:36;;;;;;;;;;;22.20;63.00;;;;;;5011876;28;1324;-70
2021/10/12 13:34:04;;;;;;;;;;;22.20;63.00;;;;;;5014853;28;1294;-71
2021/10/12 13:36:30;;;;;;;;;;;22.20;63.10;;;;;;5013953;28;1291;-71
2021/10/12 13:38:55;;;;;;;;;;;22.20;63.10;;;;;;5011475;28;1261;-71
2021/10/12 13:41:21;;;;;;;;;;;22.10;63.00;;;;;;5002484;28;1839;-71
2021/10/12 13:43:47;;;;;;;;;;;22.20;63.20;;;;;;5013122;28;1895;-70
2021/10/12 13:46:14;;;;;;;;;;;22.10;63.20;;;;;;5013460;28;1255;-70
2021/10/12 13:48:41;;;;;;;;;;;22.10;63.10;;;;;;5014610;28;1290;-70
2021/10/12 13:51:09;;;;;;;;;;;22.10;63.10;;;;;;4996342;28;1366;-70
2021/10/12 13:53:38;;;;;;;;;;;22.10;63.10;;;;;;5013516;28;1793;-70
2021/10/12 13:56:04;;;;;;;;;;;22.10;63.00;;;;;;5008429;28;1365;-70
2021/10/12 13:58:30;;;;;;;;;;;22.10;63.10;;;;;;5012670;28;1412;-70
2021/10/12 14:00:55;;;;;;;;;;;22.10;63.10;;;;;;4994328;28;2186;-70
2021/10/12 14:03:20;;;;;;;;;;;22.10;63.20;;;;;;5013786;28;1960;-70
2021/10/12 14:05:46;;;;;;;;;;;22.10;63.30;;;;;;5013145;28;1170;-70
2021/10/12 14:08:11;;;;;;;;;;;22.10;63.30;;;;;;5011284;28;1326;-70
2021/10/12 14:10:37;;;;;;;;;;;22.10;63.40;;;;;;5012271;28;1404;-70
2021/10/12 14:13:02;;;;;;;;;;;22.10;63.40;;;;;;5007825;28;1944;-71
2021/10/12 14:15:28;;;;;;;;;;;22.10;63.30;;;;;;5012537;28;1628;-71
2021/10/12 14:17:53;;;;;;;;;;;22.10;63.30;;;;;;5011171;28;1566;-70
2021/10/12 14:20:19;;;;;;;;;;;22.10;63.30;;;;;;5013484;28;1336;-70
2021/10/12 14:22:46;;;;;;;;;;;22.10;63.50;;;;;;5013125;28;1610;-70
2021/10/12 14:25:12;;;;;;;;;;;22.10;63.60;;;;;;5012592;28;1997;-70
2021/10/12 14:27:37;;;;;;;;;;;22.10;63.70;;;;;;5014429;28;1603;-70
2021/10/12 14:30:03;;;;;;;;;;;22.00;63.60;;;;;;5012220;28;1279;-70